Time;durP1;ratioP1;P1;durP2;ratioP2;P2;SDS_P1;SDS_P2;PMS_P1;PMS_P2;Temp;Humidity;BMP_temperature;BMP_pressure;BME280_temperature;BME280_humidity;BME280_pressure;Samples;Min_cycle;Max_cycle;Signal;HPM_P1;HPM_P2
2022/10/10 00:00:31;;;;;;;4.00;1.85;;;;;;;15.63;40.10;101263.09;5053934;28;20035;-61
2022/10/10 00:02:57;;;;;;;5.60;1.98;;;;;;;15.61;41.54;101259.66;5054277;28;20036;-62
2022/10/10 00:05:23;;;;;;;7.47;2.67;;;;;;;15.57;42.00;101259.16;5053986;28;20033;-67
2022/10/10 00:07:48;;;;;;;2.80;2.17;;;;;;;15.55;41.61;101263.00;5053761;28;20051;-62
2022/10/10 00:10:13;;;;;;;3.25;1.65;;;;;;;15.53;41.66;101263.13;5055183;28;20105;-61
2022/10/10 00:12:39;;;;;;;5.40;2.47;;;;;;;15.52;41.12;101260.59;5058003;28;20079;-61
2022/10/10 00:15:05;;;;;;;5.95;2.30;;;;;;;15.49;40.21;101259.06;5058174;28;20075;-61
2022/10/10 00:17:30;;;;;;;2.47;1.73;;;;;;;15.47;41.04;101269.13;5057595;28;20029;-62
2022/10/10 00:19:55;;;;;;;5.63;2.03;;;;;;;15.47;41.29;101263.72;5056705;28;20031;-62
2022/10/10 00:22:21;;;;;;;5.38;2.08;;;;;;;15.44;41.26;101264.00;5058317;28;20036;-62
2022/10/10 00:24:46;;;;;;;6.10;2.20;;;;;;;15.40;41.64;101250.97;5057526;28;20017;-62
2022/10/10 00:27:12;;;;;;;3.33;1.98;;;;;;;15.41;40.71;101263.47;5057601;28;20124;-62
2022/10/10 00:29:37;;;;;;;3.55;2.03;;;;;;;15.40;41.78;101261.75;5058062;28;20390;-61
2022/10/10 00:32:02;;;;;;;4.88;2.05;;;;;;;15.38;42.25;101252.97;5057689;28;20029;-62
2022/10/10 00:34:28;;;;;;;6.97;2.10;;;;;;;15.36;40.74;101255.78;5057883;28;20398;-61
2022/10/10 00:36:53;;;;;;;4.22;1.95;;;;;;;15.34;40.65;101256.94;5057976;28;20029;-62
2022/10/10 00:39:18;;;;;;;5.53;1.85;;;;;;;15.32;40.87;101250.84;5057904;28;20470;-61
2022/10/10 00:41:43;;;;;;;3.63;2.08;;;;;;;15.29;41.87;101249.31;5057846;28;20465;-62
2022/10/10 00:44:12;;;;;;;5.93;2.33;;;;;;;15.24;42.37;101243.53;5057799;28;20453;-62
2022/10/10 00:46:38;;;;;;;2.95;2.00;;;;;;;15.21;41.59;101245.66;5057312;28;20048;-62
2022/10/10 00:49:07;;;;;;;2.90;1.38;;;;;;;15.15;41.19;101242.56;5057619;28;20469;-62
2022/10/10 00:51:33;;;;;;;2.30;2.08;;;;;;;15.15;41.99;101252.50;5057892;28;20029;-62
2022/10/10 00:54:05;;;;;;;3.05;2.05;;;;;;;15.17;40.88;101247.78;5057708;28;20393;-62
2022/10/10 00:57:02;;;;;;;5.88;2.05;;;;;;;15.15;41.08;101241.69;5039529;28;20029;-61
2022/10/10 00:59:30;;;;;;;5.13;2.10;;;;;;;15.13;40.70;101244.53;5035230;28;20041;-62
2022/10/10 01:01:55;;;;;;;4.90;2.00;;;;;;;15.12;42.11;101248.25;5056478;28;20095;-61
2022/10/10 01:04:36;;;;;;;3.22;2.45;;;;;;;15.11;41.07;101246.53;5057925;28;20025;-61
2022/10/10 01:07:22;;;;;;;4.35;2.55;;;;;;;15.05;40.95;101238.16;5040106;28;20517;-62
2022/10/10 01:09:49;;;;;;;7.80;1.92;;;;;;;15.08;40.96;101243.28;5039492;28;20040;-62
2022/10/10 01:12:55;;;;;;;3.53;2.33;;;;;;;15.06;40.88;101237.19;5056801;28;20390;-62
2022/10/10 01:16:10;;;;;;;3.28;2.30;;;;;;;15.02;42.13;101230.38;5055967;28;20013;-62
2022/10/10 01:19:12;;;;;;;2.92;1.98;;;;;;;14.98;42.31;101231.69;5044177;28;20040;-62
2022/10/10 01:22:13;;;;;;;2.60;1.67;;;;;;;14.95;42.27;101224.75;5056444;28;20123;-61
2022/10/10 01:24:54;;;;;;;3.60;1.60;;;;;;;14.92;42.50;101221.47;5039716;28;20045;-62
2022/10/10 01:27:25;;;;;;;3.47;2.30;;;;;;;14.90;41.13;101231.56;5056221;28;20064;-62
2022/10/10 01:30:26;;;;;;;5.15;2.30;;;;;;;14.86;42.35;101220.22;5039927;28;20060;-62
2022/10/10 01:33:01;;;;;;;4.25;2.42;;;;;;;14.86;41.51;101208.56;5055090;28;20482;-61
2022/10/10 01:35:35;;;;;;;5.53;2.10;;;;;;;14.83;41.73;101209.72;5056739;28;20020;-61
2022/10/10 01:38:21;;;;;;;4.53;2.30;;;;;;;14.82;41.26;101217.97;5057658;28;20029;-61
2022/10/10 01:40:48;;;;;;;3.03;2.40;;;;;;;14.82;42.23;101212.56;5056623;28;20542;-62
2022/10/10 01:43:13;;;;;;;6.55;3.13;;;;;;;14.80;42.80;101201.91;5055072;28;20433;-62
2022/10/10 01:45:43;;;;;;;4.35;2.45;;;;;;;14.80;42.39;101211.84;5038479;28;20020;-61
2022/10/10 01:48:09;;;;;;;5.53;2.60;;;;;;;14.78;42.50;101197.69;5039119;28;20041;-61
2022/10/10 01:50:46;;;;;;;3.50;2.03;;;;;;;14.79;41.32;101210.19;5056829;28;20082;-62
2022/10/10 01:53:23;;;;;;;4.07;2.55;;;;;;;14.75;42.11;101200.66;5055045;28;20047;-61
2022/10/10 01:56:18;;;;;;;2.22;1.80;;;;;;;14.73;41.29;101202.66;5038630;28;20515;-62
2022/10/10 01:59:08;;;;;;;3.70;2.17;;;;;;;14.68;42.75;101202.25;5056259;28;20013;-62
2022/10/10 02:01:47;;;;;;;4.43;1.88;;;;;;;14.62;42.88;101200.16;5056154;28;20033;-62
2022/10/10 02:04:32;;;;;;;4.30;2.33;;;;;;;14.63;42.37;101201.84;5055302;28;20180;-62
2022/10/10 02:07:14;;;;;;;3.45;2.28;;;;;;;14.61;42.28;101195.75;5038116;28;20025;-62
2022/10/10 02:09:41;;;;;;;3.90;2.30;;;;;;;14.58;42.80;101200.44;5055615;28;20482;-61
2022/10/10 02:12:08;;;;;;;4.38;2.00;;;;;;;14.58;41.96;101194.19;5055415;28;20670;-62
2022/10/10 02:14:43;;;;;;;3.05;1.73;;;;;;;14.56;41.52;101185.41;5055663;28;20029;-62
2022/10/10 02:17:12;;;;;;;4.00;2.38;;;;;;;14.54;42.49;101193.63;5037920;28;20029;-61
2022/10/10 02:19:42;;;;;;;2.67;1.92;;;;;;;14.53;43.07;101191.94;5055869;28;20539;-62
2022/10/10 02:22:08;;;;;;;4.20;2.08;;;;;;;14.53;41.96;101188.38;5038233;28;20033;-62
2022/10/10 02:24:33;;;;;;;3.50;1.85;;;;;;;14.51;41.60;101183.16;5055577;28;20452;-62
2022/10/10 02:27:06;;;;;;;3.08;1.83;;;;;;;14.50;41.66;101183.28;5056806;28;20108;-62
2022/10/10 02:29:34;;;;;;;2.60;1.92;;;;;;;14.50;42.89;101184.13;5056473;28;20025;-62
2022/10/10 02:32:17;;;;;;;5.20;2.08;;;;;;;14.50;42.53;101183.28;5037829;28;20555;-62
2022/10/10 02:34:46;;;;;;;2.50;1.70;;;;;;;14.48;42.32;101178.06;5053259;28;20044;-62
2022/10/10 02:37:13;;;;;;;5.05;2.10;;;;;;;14.47;41.98;101173.66;5055029;28;20036;-62
2022/10/10 02:39:43;;;;;;;4.28;2.20;;;;;;;14.47;42.89;101176.34;5039161;28;20017;-62
2022/10/10 02:42:09;;;;;;;3.63;2.55;;;;;;;14.43;42.63;101168.69;5037536;28;20478;-62
2022/10/10 02:44:36;;;;;;;4.65;2.05;;;;;;;14.43;42.39;101169.53;5055703;28;20115;-62
2022/10/10 02:47:01;;;;;;;5.57;2.15;;;;;;;14.40;43.23;101164.47;5054887;28;20498;-61
2022/10/10 02:49:31;;;;;;;3.15;2.40;;;;;;;14.48;41.78;101178.06;5055158;28;20017;-62
2022/10/10 02:51:56;;;;;;;3.33;2.05;;;;;;;14.47;42.24;101173.66;5037345;28;20020;-62
2022/10/10 02:54:22;;;;;;;9.80;2.60;;;;;;;14.49;42.40;101174.34;5054015;28;20025;-62
2022/10/10 02:56:48;;;;;;;4.05;2.33;;;;;;;14.54;42.81;101173.94;5053763;28;20021;-62
2022/10/10 02:59:13;;;;;;;8.40;2.40;;;;;;;14.53;42.86;101169.53;5054954;28;20023;-62
2022/10/10 03:01:38;;;;;;;5.68;2.00;;;;;;;14.54;43.07;101174.75;5053622;28;20100;-62
2022/10/10 03:04:04;;;;;;;3.67;2.35;;;;;;;14.54;42.49;101174.75;5055171;28;20035;-62
2022/10/10 03:06:29;;;;;;;3.35;2.28;;;;;;;14.50;42.23;101176.06;5054912;28;20043;-62
2022/10/10 03:08:55;;;;;;;2.63;1.95;;;;;;;14.47;42.90;101165.56;5054823;28;20025;-62
2022/10/10 03:11:20;;;;;;;3.55;2.13;;;;;;;14.44;42.36;101171.25;5054913;28;20028;-62
2022/10/10 03:13:45;;;;;;;3.90;2.00;;;;;;;14.46;42.71;101166.53;5036796;28;20070;-62
2022/10/10 03:16:11;;;;;;;3.83;2.28;;;;;;;14.47;43.27;101164.72;5055024;28;20390;-61
2022/10/10 03:18:36;;;;;;;3.95;2.03;;;;;;;14.43;42.43;101164.13;5055174;28;20021;-62
2022/10/10 03:21:02;;;;;;;4.18;2.08;;;;;;;14.44;42.93;101171.25;5037623;28;20039;-62
2022/10/10 03:23:28;;;;;;;7.55;2.25;;;;;;;14.42;43.27;101162.47;5055693;28;20017;-62
2022/10/10 03:25:53;;;;;;;5.68;2.28;;;;;;;14.41;42.42;101165.28;5054462;28;20025;-62
2022/10/10 03:28:19;;;;;;;9.65;2.97;;;;;;;14.39;42.32;101161.88;5053236;28;20033;-62
2022/10/10 03:30:45;;;;;;;2.85;2.38;;;;;;;14.38;43.49;101166.44;5054703;28;20099;-62
2022/10/10 03:33:10;;;;;;;3.20;1.92;;;;;;;14.39;42.10;101160.06;5054741;28;20497;-62
2022/10/10 03:35:36;;;;;;;3.80;2.22;;;;;;;14.39;43.09;101159.19;5054581;28;20057;-62
2022/10/10 03:38:02;;;;;;;6.68;2.03;;;;;;;14.38;42.71;101161.03;5054487;28;20056;-61
2022/10/10 03:40:28;;;;;;;3.25;2.15;;;;;;;14.37;43.54;101163.88;5054487;28;20371;-62
2022/10/10 03:42:54;;;;;;;3.22;2.63;;;;;;;14.32;42.19;101156.22;5037373;28;20056;-62
2022/10/10 03:45:20;;;;;;;3.53;2.50;;;;;;;14.32;42.75;101158.91;5036631;28;20056;-62
2022/10/10 03:47:45;;;;;;;4.50;1.90;;;;;;;14.28;43.05;101160.19;5036932;28;20088;-62
2022/10/10 03:50:10;;;;;;;3.45;2.13;;;;;;;14.29;43.52;101161.03;5054960;28;20036;-62
2022/10/10 03:52:36;;;;;;;4.95;2.30;;;;;;;14.31;42.50;101159.91;5054427;28;20029;-62
2022/10/10 03:55:02;;;;;;;4.32;2.65;;;;;;;14.31;42.49;101165.28;5054377;28;20056;-62
2022/10/10 03:57:27;;;;;;;5.25;2.38;;;;;;;14.31;42.64;101159.91;5054653;28;20025;-62
2022/10/10 03:59:53;;;;;;;6.13;2.10;;;;;;;14.30;42.93;101152.81;5054376;28;20082;-61
2022/10/10 04:02:18;;;;;;;3.38;1.88;;;;;;;14.29;43.28;101148.41;5054539;28;20505;-62
2022/10/10 04:04:43;;;;;;;3.65;2.00;;;;;;;14.31;42.31;101150.97;5054165;28;20035;-62
2022/10/10 04:07:09;;;;;;;2.67;1.77;;;;;;;14.29;42.57;101148.41;5054979;28;20025;-62
2022/10/10 04:09:34;;;;;;;8.80;3.33;;;;;;;14.30;43.10;101141.16;5055068;28;20033;-62
2022/10/10 04:12:00;;;;;;;3.63;2.42;;;;;;;14.25;42.91;101127.28;5036737;28;20021;-62
2022/10/10 04:14:26;;;;;;;2.90;2.25;;;;;;;14.22;42.66;101131.13;5052828;28;20028;-62
2022/10/10 04:16:51;;;;;;;4.82;1.85;;;;;;;14.24;42.11;101145.28;5036899;28;20449;-61
2022/10/10 04:19:16;;;;;;;4.47;2.13;;;;;;;14.24;42.48;101152.53;5054964;28;20032;-62
2022/10/10 04:21:42;;;;;;;7.38;3.42;;;;;;;14.24;42.37;101142.59;5054754;28;20029;-62
2022/10/10 04:24:08;;;;;;;4.25;2.28;;;;;;;14.19;43.30;101144.88;5054992;28;20033;-62
2022/10/10 04:26:33;;;;;;;5.32;2.15;;;;;;;14.23;42.83;101149.00;5053997;28;20058;-62
2022/10/10 04:28:58;;;;;;;12.90;3.30;;;;;;;14.24;43.54;101141.75;5053923;28;20036;-62
2022/10/10 04:31:24;;;;;;;4.80;3.28;;;;;;;14.23;43.98;101140.91;5036296;28;20025;-61
2022/10/10 04:33:51;;;;;;;4.88;2.60;;;;;;;14.26;43.52;101142.47;5054056;28;20438;-62
2022/10/10 04:36:16;;;;;;;4.18;2.17;;;;;;;14.29;42.92;101134.09;5036663;28;20036;-62
2022/10/10 04:38:42;;;;;;;6.57;2.47;;;;;;;14.30;43.92;101136.63;5054846;28;20032;-62
2022/10/10 04:41:07;;;;;;;4.25;1.48;;;;;;;14.40;43.85;101131.25;5053464;28;20025;-62
2022/10/10 04:43:33;;;;;;;1.25;1.13;;;;;;;14.49;44.21;101141.13;5053762;28;20036;-62
2022/10/10 04:45:58;;;;;;;4.68;2.03;;;;;;;14.57;44.15;101139.41;5053864;28;20025;-62
2022/10/10 04:48:24;;;;;;;4.05;1.90;;;;;;;14.63;43.25;101132.56;5050016;28;20041;-62
2022/10/10 04:50:56;;;;;;;6.40;1.85;;;;;;;14.73;44.14;101136.09;5034593;28;20066;-62
2022/10/10 04:53:23;;;;;;;2.95;2.22;;;;;;;14.87;42.98;101134.75;5034193;28;20026;-61
2022/10/10 04:55:48;;;;;;;5.10;1.80;;;;;;;14.97;43.27;101141.81;5049331;28;20026;-62
2022/10/10 04:58:14;;;;;;;3.50;1.50;;;;;;;15.07;43.09;101136.38;5036788;28;20032;-61
2022/10/10 05:00:40;;;;;;;4.63;1.90;;;;;;;15.18;44.55;101133.47;5038030;28;20390;-62
2022/10/10 05:03:05;;;;;;;5.55;1.92;;;;;;;15.27;43.47;101137.94;5037566;28;20048;-61
2022/10/10 05:05:30;;;;;;;4.53;1.73;;;;;;;15.28;44.34;101130.69;5037681;28;20022;-61
2022/10/10 05:07:56;;;;;;;4.35;2.15;;;;;;;15.43;43.79;101143.53;5037721;28;20467;-61
2022/10/10 05:10:22;;;;;;;4.38;2.00;;;;;;;15.45;43.12;101133.41;5038145;28;20028;-61
2022/10/10 05:12:48;;;;;;;3.90;1.65;;;;;;;15.56;43.34;101146.72;5037420;28;20025;-62
2022/10/10 05:15:13;;;;;;;5.38;2.10;;;;;;;15.59;44.17;101146.41;5037272;28;20107;-61
2022/10/10 05:17:39;;;;;;;5.05;2.15;;;;;;;15.69;44.90;101149.88;5036636;28;20033;-62
2022/10/10 05:20:05;;;;;;;3.33;1.88;;;;;;;15.71;44.42;101137.09;5053005;28;20082;-61
2022/10/10 05:22:30;;;;;;;7.35;2.30;;;;;;;15.74;43.96;101131.34;5039036;28;20103;-62
2022/10/10 05:24:57;;;;;;;4.22;1.90;;;;;;;15.84;43.18;101149.34;5057635;28;20017;-62
2022/10/10 05:27:23;;;;;;;3.25;2.10;;;;;;;15.89;44.96;101144.31;5056597;28;20021;-62
2022/10/10 05:29:48;;;;;;;9.82;2.38;;;;;;;15.92;43.39;101149.41;5057735;28;20360;-61
2022/10/10 05:32:13;;;;;;;6.00;2.75;;;;;;;15.96;44.46;101140.00;5057112;28;20052;-62
2022/10/10 05:34:39;;;;;;;13.50;1.88;;;;;;;16.00;44.84;101142.22;5056527;28;20053;-61
2022/10/10 05:37:04;;;;;;;4.95;1.42;;;;;;;16.04;45.04;101148.16;5056437;28;20029;-61
2022/10/10 05:39:29;;;;;;;5.22;1.88;;;;;;;16.06;43.98;101140.75;5056236;28;20025;-62
2022/10/10 05:41:55;;;;;;;5.88;1.90;;;;;;;16.09;44.84;101146.69;5057035;28;20142;-61
2022/10/10 05:44:20;;;;;;;8.32;1.70;;;;;;;16.13;43.64;101148.09;5055634;28;20386;-61
2022/10/10 05:46:45;;;;;;;3.13;1.85;;;;;;;16.18;44.08;101155.72;5057638;28;20025;-61
2022/10/10 05:49:11;;;;;;;6.15;2.00;;;;;;;16.19;44.18;101154.72;5042195;28;20032;-66
2022/10/10 05:51:36;;;;;;;7.43;2.00;;;;;;;16.22;44.67;101151.69;5058786;28;20530;-61
2022/10/10 05:54:02;;;;;;;6.25;2.08;;;;;;;16.24;45.21;101149.69;5076356;28;20082;-61
2022/10/10 05:56:27;;;;;;;4.05;2.30;;;;;;;16.24;44.47;101152.38;5058659;28;20099;-62
2022/10/10 05:58:53;;;;;;;2.75;1.33;;;;;;;16.34;45.04;101153.13;5077176;28;20095;-62
2022/10/10 06:01:18;;;;;;;4.53;2.13;;;;;;;16.43;44.05;101152.19;5059154;28;20047;-61
2022/10/10 06:03:43;;;;;;;4.18;1.67;;;;;;;16.51;45.46;101154.94;5076969;28;20427;-61
2022/10/10 06:06:09;;;;;;;4.45;1.55;;;;;;;16.59;44.82;101152.31;5059038;28;20130;-62
2022/10/10 06:08:34;;;;;;;11.20;1.80;;;;;;;16.66;43.96;101156.09;5058622;28;20029;-62
2022/10/10 06:11:06;;;;;;;5.18;1.92;;;;;;;16.74;45.91;101149.88;5059011;28;20043;-62
2022/10/10 06:13:32;;;;;;;5.47;2.00;;;;;;;16.80;44.62;101144.66;5077038;28;20029;-62
2022/10/10 06:15:57;;;;;;;1.73;1.60;;;;;;;16.96;43.89;101151.16;5058391;28;20036;-62
2022/10/10 06:18:23;;;;;;;3.55;1.90;;;;;;;17.02;44.96;101129.69;5076474;28;20036;-62
2022/10/10 06:20:48;;;;;;;3.75;2.15;;;;;;;17.20;44.81;101148.53;5058716;28;20043;-62
2022/10/10 06:23:14;;;;;;;3.72;1.75;;;;;;;17.31;44.99;101145.50;5076489;28;20032;-62
2022/10/10 06:25:39;;;;;;;8.80;2.20;;;;;;;17.45;44.67;101155.72;5076680;28;20024;-62
2022/10/10 06:28:04;;;;;;;5.50;1.67;;;;;;;17.57;45.32;101150.88;5058387;28;20063;-62
2022/10/10 06:30:30;;;;;;;2.53;1.73;;;;;;;17.61;44.33;101147.69;5058871;28;20440;-62
2022/10/10 06:32:57;;;;;;;10.05;1.98;;;;;;;17.78;44.98;101154.78;5076555;28;20377;-62
2022/10/10 06:35:23;;;;;;;3.30;1.88;;;;;;;17.90;44.09;101141.75;5076642;28;20040;-62
2022/10/10 06:37:48;;;;;;;7.03;2.00;;;;;;;18.01;45.03;101142.28;5073667;28;20161;-62
2022/10/10 06:40:14;;;;;;;4.22;2.25;;;;;;;18.11;44.67;101150.25;5057746;28;20064;-62
2022/10/10 06:42:39;;;;;;;7.72;2.03;;;;;;;18.25;44.31;101154.13;5055179;28;20037;-62
2022/10/10 06:45:05;;;;;;;3.65;1.77;;;;;;;18.39;44.46;101153.44;5055709;28;20037;-61
2022/10/10 06:47:30;;;;;;;8.70;2.10;;;;;;;18.41;45.11;101135.13;5055085;28;20057;-61
2022/10/10 06:49:55;;;;;;;3.78;1.85;;;;;;;18.48;44.31;101141.59;5055231;28;20029;-61
2022/10/10 06:52:21;;;;;;;4.90;2.10;;;;;;;18.50;45.14;101151.25;5055025;28;20025;-61
2022/10/10 06:54:46;;;;;;;3.88;2.15;;;;;;;18.54;45.32;101146.31;5054873;28;20478;-61
2022/10/10 06:57:11;;;;;;;8.13;1.77;;;;;;;18.60;44.90;101142.91;5055060;28;20036;-61
2022/10/10 06:59:37;;;;;;;7.20;2.35;;;;;;;18.63;45.14;101134.41;5056142;28;20119;-62
2022/10/10 07:02:02;;;;;;;4.10;2.15;;;;;;;18.73;44.96;101142.38;5038145;28;20496;-62
2022/10/10 07:04:28;;;;;;;3.92;1.92;;;;;;;18.85;44.29;101158.09;5055686;28;20029;-62
2022/10/10 07:06:53;;;;;;;6.22;1.90;;;;;;;18.92;44.70;101144.69;5055739;28;20024;-62
2022/10/10 07:09:19;;;;;;;5.22;1.73;;;;;;;19.06;44.54;101146.66;5055350;28;20040;-62
2022/10/10 07:11:44;;;;;;;4.50;2.10;;;;;;;19.18;44.73;101140.66;5055661;28;20029;-61
2022/10/10 07:14:12;;;;;;;3.38;1.92;;;;;;;19.37;44.04;101146.69;5055298;28;20056;-61
2022/10/10 07:16:38;;;;;;;4.72;1.70;;;;;;;19.60;44.25;101153.84;5037421;28;20037;-62
2022/10/10 07:19:04;;;;;;;2.35;1.75;;;;;;;19.81;44.63;101142.34;5055625;28;20025;-61
2022/10/10 07:21:29;;;;;;;4.32;1.55;;;;;;;20.04;44.08;101153.22;5037578;28;20025;-61
2022/10/10 07:23:55;;;;;;;2.20;1.50;;;;;;;20.19;44.49;101151.38;5056211;28;20033;-62
2022/10/10 07:26:21;;;;;;;6.72;3.75;;;;;;;20.45;43.62;101161.88;5055534;28;20398;-61
2022/10/10 07:28:47;;;;;;;5.00;1.90;;;;;;;20.61;43.98;101167.16;5055680;28;20025;-61
2022/10/10 07:31:13;;;;;;;4.68;2.33;;;;;;;20.75;44.18;101163.59;5055633;28;20033;-61
2022/10/10 07:33:40;;;;;;;10.52;2.50;;;;;;;20.99;43.79;101165.22;5037906;28;20024;-62
2022/10/10 07:36:06;;;;;;;4.15;1.95;;;;;;;21.23;43.43;101167.66;5037426;28;20021;-62
2022/10/10 07:38:32;;;;;;;7.43;2.70;;;;;;;21.47;42.57;101164.59;5037254;28;20028;-62
2022/10/10 07:40:57;;;;;;;4.22;1.83;;;;;;;21.69;43.17;101170.94;5037048;28;20117;-62
2022/10/10 07:43:23;;;;;;;8.73;1.70;;;;;;;21.90;42.53;101165.53;5054845;28;20537;-61
2022/10/10 07:45:48;;;;;;;7.30;2.15;;;;;;;22.16;42.56;101170.41;5054581;28;20037;-62
2022/10/10 07:48:14;;;;;;;2.85;1.45;;;;;;;22.33;43.10;101172.66;5036782;28;20059;-61
2022/10/10 07:50:41;;;;;;;4.32;2.08;;;;;;;22.48;42.11;101176.13;5054696;28;20035;-61
2022/10/10 07:53:07;;;;;;;5.82;1.92;;;;;;;22.67;42.81;101179.25;5036907;28;20029;-61
2022/10/10 07:55:33;;;;;;;5.15;1.70;;;;;;;22.88;42.06;101170.97;5036964;28;20033;-61
2022/10/10 07:58:01;;;;;;;6.03;1.70;;;;;;;23.08;41.88;101177.41;5054629;28;20081;-62
2022/10/10 08:00:27;;;;;;;4.82;1.85;;;;;;;23.24;41.45;101184.41;5054856;28;20112;-61
2022/10/10 08:02:52;;;;;;;4.93;2.08;;;;;;;23.37;42.05;101182.59;5054817;28;20116;-60
2022/10/10 08:05:17;;;;;;;7.22;1.65;;;;;;;23.53;40.97;101176.81;5054559;28;20078;-61
2022/10/10 08:07:43;;;;;;;5.05;2.10;;;;;;;23.72;41.11;101181.50;5054490;28;20059;-61
2022/10/10 08:10:08;;;;;;;5.90;2.70;;;;;;;23.87;41.44;101189.50;5054328;28;20485;-61
2022/10/10 08:12:34;;;;;;;3.90;2.08;;;;;;;24.07;41.03;101192.28;5020139;28;20033;-61
2022/10/10 08:15:00;;;;;;;3.67;2.20;;;;;;;24.28;41.08;101192.16;5054446;28;20065;-60
2022/10/10 08:17:25;;;;;;;7.20;2.05;;;;;;;24.45;40.70;101190.69;5054188;28;20021;-61
2022/10/10 08:19:50;;;;;;;5.32;1.65;;;;;;;24.59;39.81;101188.78;5054171;28;20051;-60
2022/10/10 08:22:16;;;;;;;8.32;1.95;;;;;;;24.79;40.27;101195.94;5019812;28;20021;-61
2022/10/10 08:24:41;;;;;;;5.85;1.88;;;;;;;25.00;39.73;101196.75;5036672;28;20163;-61
2022/10/10 08:27:07;;;;;;;8.20;2.25;;;;;;;25.22;39.82;101187.19;5054229;28;20044;-61
2022/10/10 08:29:32;;;;;;;8.48;2.15;;;;;;;25.44;39.51;101196.81;5053740;28;20029;-61
2022/10/10 08:31:57;;;;;;;4.03;1.58;;;;;;;25.62;39.16;101186.03;5054282;28;20037;-60
2022/10/10 08:34:23;;;;;;;5.75;2.25;;;;;;;25.80;38.80;101188.88;5057897;28;20091;-61
2022/10/10 08:36:48;;;;;;;6.38;1.52;;;;;;;25.99;38.91;101198.88;5058137;28;20027;-61
2022/10/10 08:39:15;;;;;;;6.03;2.53;;;;;;;26.22;38.79;101197.47;5057940;28;20074;-61
2022/10/10 08:41:54;;;;;;;8.77;2.60;;;;;;;26.45;38.52;101200.47;5057750;28;20024;-61
2022/10/10 08:44:39;;;;;;;6.75;2.58;;;;;;;26.45;38.62;101192.25;5057875;28;20047;-61
2022/10/10 08:47:09;;;;;;;7.95;1.90;;;;;;;26.28;38.92;101197.44;5040110;28;20105;-61
2022/10/10 08:50:00;;;;;;;7.20;2.13;;;;;;;26.27;38.46;101203.19;5057998;28;20025;-60
2022/10/10 08:53:05;;;;;;;9.32;2.13;;;;;;;26.61;37.85;101202.66;5058742;28;20510;-61
2022/10/10 08:55:32;;;;;;;10.48;2.65;;;;;;;26.72;38.20;101207.41;5017140;28;20112;-61
2022/10/10 08:58:15;;;;;;;5.15;1.98;;;;;;;26.65;38.27;101206.66;5015603;28;20142;-61
2022/10/10 09:00:47;;;;;;;5.88;2.08;;;;;;;26.66;38.11;101210.25;5015711;28;20026;-60
2022/10/10 09:03:19;;;;;;;7.10;1.60;;;;;;;26.78;37.07;101203.81;5015761;28;20038;-61
2022/10/10 09:06:20;;;;;;;9.25;1.95;;;;;;;26.93;36.98;101212.56;5015856;28;20068;-61
2022/10/10 09:08:57;;;;;;;9.43;1.92;;;;;;;27.29;36.67;101213.63;5015795;28;20030;-61
2022/10/10 09:11:41;;;;;;;8.18;2.00;;;;;;;27.42;37.23;101208.00;5014997;28;20041;-61
2022/10/10 09:14:24;;;;;;;6.10;1.63;;;;;;;27.55;37.36;101211.47;5014643;28;20025;-60
2022/10/10 09:16:56;;;;;;;3.47;1.67;;;;;;;27.46;36.55;101218.34;5015066;28;20091;-61
2022/10/10 09:19:28;;;;;;;10.00;1.98;;;;;;;28.15;36.86;101228.84;5014916;28;20053;-61
2022/10/10 09:21:56;;;;;;;7.65;1.60;;;;;;;28.91;35.75;101222.53;5014746;28;20037;-59
2022/10/10 09:24:31;;;;;;;6.10;1.77;;;;;;;29.81;34.36;101222.91;5014652;28;20430;-61
2022/10/10 09:27:03;;;;;;;6.85;2.28;;;;;;;29.71;34.58;101222.66;5014520;28;20021;-59
2022/10/10 09:29:38;;;;;;;7.35;1.60;;;;;;;30.02;34.56;101219.44;5036427;28;20076;-59
2022/10/10 09:32:06;;;;;;;12.40;1.85;;;;;;;30.23;34.01;101224.28;5056479;28;20036;-61
2022/10/10 09:34:45;;;;;;;5.90;1.90;;;;;;;29.80;34.46;101204.66;5056310;28;20100;-59
2022/10/10 09:37:37;;;;;;;4.40;1.73;;;;;;;30.00;33.97;101227.16;5038611;28;20025;-60
2022/10/10 09:40:11;;;;;;;6.53;1.75;;;;;;;30.36;33.87;101232.25;5056149;28;20025;-59
2022/10/10 09:42:38;;;;;;;2.88;1.50;;;;;;;30.34;33.87;101231.66;5056148;28;20051;-59
2022/10/10 09:45:26;;;;;;;3.15;1.60;;;;;;;30.20;33.39;101227.53;5056556;28;20126;-59
2022/10/10 09:47:53;;;;;;;4.10;1.83;;;;;;;29.68;34.43;101228.66;5037698;28;20083;-59
2022/10/10 09:50:19;;;;;;;2.85;1.38;;;;;;;29.37;34.90;101244.59;5056154;28;20029;-59
2022/10/10 09:52:46;;;;;;;5.13;1.77;;;;;;;29.09;35.03;101236.19;5038151;28;20508;-60
2022/10/10 09:55:32;;;;;;;7.80;2.33;;;;;;;29.56;34.09;101230.66;5038309;28;20017;-59
2022/10/10 09:58:13;;;;;;;7.63;1.70;;;;;;;29.27;34.75;101230.59;5038093;28;20025;-59
2022/10/10 10:00:39;;;;;;;3.83;1.40;;;;;;;29.12;34.38;101244.00;5055581;28;20017;-59
2022/10/10 10:03:18;;;;;;;6.50;1.75;;;;;;;30.00;33.89;101235.44;5055461;28;20036;-59
2022/10/10 10:05:46;;;;;;;17.20;1.95;;;;;;;29.98;33.72;101241.19;5055617;28;20078;-60
2022/10/10 10:08:21;;;;;;;4.60;1.50;;;;;;;30.73;32.67;101237.31;5038017;28;20060;-61
2022/10/10 10:10:46;;;;;;;2.83;1.52;;;;;;;31.17;32.74;101241.91;5039139;28;20478;-60
2022/10/10 10:13:14;;;;;;;6.05;1.80;;;;;;;31.52;32.36;101236.88;5057980;28;20097;-60
2022/10/10 10:15:49;;;;;;;4.68;1.85;;;;;;;30.98;32.57;101251.59;5075780;28;20032;-61
2022/10/10 10:18:27;;;;;;;5.35;1.67;;;;;;;30.78;32.95;101249.31;5057931;28;20070;-60
2022/10/10 10:21:20;;;;;;;4.65;1.55;;;;;;;30.57;33.20;101253.66;5058060;28;20082;-59
2022/10/10 10:23:52;;;;;;;8.20;1.73;;;;;;;30.87;33.04;101249.72;5057416;28;20044;-60
2022/10/10 10:26:42;;;;;;;8.90;1.85;;;;;;;31.15;32.75;101241.34;5057385;28;20029;-60
2022/10/10 10:29:29;;;;;;;4.30;1.50;;;;;;;31.02;32.92;101252.75;5056891;28;20542;-60
2022/10/10 10:31:57;;;;;;;3.92;1.33;;;;;;;30.69;33.08;101241.66;5056040;28;20029;-60
2022/10/10 10:34:46;;;;;;;10.52;1.70;;;;;;;30.32;33.24;101250.41;5058207;28;20508;-60
2022/10/10 10:37:40;;;;;;;4.63;1.38;;;;;;;29.99;33.79;101253.09;5042937;28;20078;-60
2022/10/10 10:40:14;;;;;;;2.15;1.20;;;;;;;29.56;34.27;101236.16;5056470;28;20097;-60
2022/10/10 10:42:45;;;;;;;15.85;1.67;;;;;;;29.43;33.77;101254.69;5057406;28;20371;-61
2022/10/10 10:45:17;;;;;;;15.35;2.38;;;;;;;29.24;34.57;101261.44;5056477;28;20024;-60
2022/10/10 10:48:09;;;;;;;1.50;1.40;;;;;;;28.98;34.38;101256.34;5055179;28;20080;-60
2022/10/10 10:50:41;;;;;;;10.02;1.77;;;;;;;28.67;34.73;101248.44;5026886;28;20406;-60
2022/10/10 10:53:06;;;;;;;7.18;1.55;;;;;;;28.34;34.77;101256.38;5055624;28;20402;-59
2022/10/10 10:55:39;;;;;;;4.38;2.05;;;;;;;28.07;34.35;101266.91;5055198;28;20122;-60
2022/10/10 10:58:10;;;;;;;5.93;1.35;;;;;;;27.86;34.69;101268.25;5055411;28;20021;-60
2022/10/10 11:00:59;;;;;;;6.40;1.38;;;;;;;27.66;35.30;101264.91;5055444;28;20027;-60
2022/10/10 11:03:31;;;;;;;8.10;1.35;;;;;;;27.50;35.42;101258.06;5037698;28;20029;-59
2022/10/10 11:06:11;;;;;;;6.10;1.70;;;;;;;27.39;35.37;101255.22;5055841;28;20049;-59
2022/10/10 11:09:07;;;;;;;8.27;2.30;;;;;;;27.33;34.93;101256.16;5055126;28;20083;-60
2022/10/10 11:11:54;;;;;;;4.97;1.30;;;;;;;27.28;35.79;101259.56;5037481;28;20394;-60
2022/10/10 11:14:40;;;;;;;7.00;1.60;;;;;;;27.27;35.76;101259.81;5037415;28;20032;-59
2022/10/10 11:17:34;;;;;;;4.38;1.08;;;;;;;27.24;35.53;101261.13;5055150;28;20024;-60
2022/10/10 11:20:00;;;;;;;2.78;1.63;;;;;;;27.24;35.85;101260.28;5054917;28;20017;-60
2022/10/10 11:22:36;;;;;;;8.82;1.27;;;;;;;27.25;35.77;101257.28;5055192;28;20025;-60
2022/10/10 11:25:12;;;;;;;10.35;1.65;;;;;;;27.29;36.13;101265.94;5037401;28;20612;-60
2022/10/10 11:27:41;;;;;;;3.13;1.10;;;;;;;27.29;35.48;101254.91;5055080;28;20028;-60
2022/10/10 11:30:17;;;;;;;4.78;1.15;;;;;;;27.30;36.16;101259.38;5055198;28;20124;-60
2022/10/10 11:33:10;;;;;;;5.25;2.00;;;;;;;27.29;35.38;101254.91;5037034;28;20025;-60
2022/10/10 11:35:37;;;;;;;;;;;;;;;27.30;35.66;101264.88;5037743;28;20107;-60
2022/10/10 11:38:12;;;;;;;13.68;2.15;;;;;;;27.31;36.24;101258.28;5037123;28;20015;-60